Time;durP1;ratioP1;P1;durP2;ratioP2;P2;SDS_P1;SDS_P2;PMS_P1;PMS_P2;Temp;Humidity;BMP_temperature;BMP_pressure;BME280_temperature;BME280_humidity;BME280_pressure;Samples;Min_cycle;Max_cycle;Signal;HPM_P1;HPM_P2
2023/09/18 00:01:02;;;;;;;6.80;1.50;;;38.00;31.90;;;;;;5072676;28;20396;-65
2023/09/18 00:03:28;;;;;;;9.32;1.70;;;37.90;32.00;;;;;;5074077;28;20020;-64
2023/09/18 00:05:54;;;;;;;4.35;1.38;;;37.90;32.20;;;;;;5074906;28;20013;-66
2023/09/18 00:08:21;;;;;;;5.95;1.33;;;37.90;33.10;;;;;;5064696;28;20016;-65
2023/09/18 00:10:54;;;;;;;7.10;1.25;;;37.90;33.40;;;;;;5070773;28;20013;-65
2023/09/18 00:13:22;;;;;;;4.22;1.30;;;37.80;33.00;;;;;;5077358;28;20034;-65
2023/09/18 00:15:48;;;;;;;7.05;2.15;;;37.80;34.30;;;;;;5070812;28;20036;-64
2023/09/18 00:18:16;;;;;;;8.95;1.40;;;37.70;32.80;;;;;;5073591;28;20031;-63
2023/09/18 00:20:43;;;;;;;9.38;1.88;;;37.70;33.10;;;;;;5062484;28;20029;-66
2023/09/18 00:23:10;;;;;;;6.03;1.77;;;37.60;32.50;;;;;;5061038;28;20028;-61
2023/09/18 00:25:42;;;;;;;8.38;2.13;;;37.50;32.80;;;;;;5068209;28;20126;-62
2023/09/18 00:28:08;;;;;;;5.32;1.73;;;37.50;33.20;;;;;;5066015;28;20532;-63
2023/09/18 00:30:36;;;;;;;6.07;1.60;;;37.40;33.00;;;;;;5064727;28;20373;-64
2023/09/18 00:33:02;;;;;;;5.60;1.65;;;37.30;33.10;;;;;;5071722;28;20024;-63
2023/09/18 00:35:29;;;;;;;11.10;2.10;;;37.20;33.30;;;;;;5064014;28;20011;-62
2023/09/18 00:37:56;;;;;;;8.35;1.92;;;37.20;32.70;;;;;;5061615;28;20017;-62
2023/09/18 00:40:22;;;;;;;5.40;1.70;;;37.10;32.50;;;;;;5061473;28;20021;-63
2023/09/18 00:42:48;;;;;;;6.93;1.40;;;36.90;31.70;;;;;;5067048;28;20107;-62
2023/09/18 00:45:15;;;;;;;4.88;1.60;;;36.80;32.00;;;;;;5053982;28;20021;-63
2023/09/18 00:47:41;;;;;;;5.43;1.98;;;36.70;31.70;;;;;;5071885;28;20020;-62
2023/09/18 00:50:11;;;;;;;23.33;7.22;;;36.70;32.00;;;;;;5071307;28;20055;-62
2023/09/18 00:52:39;;;;;;;3.78;1.60;;;36.70;31.70;;;;;;5064972;28;20184;-63
2023/09/18 00:55:07;;;;;;;4.75;1.75;;;36.70;31.50;;;;;;5069520;28;20480;-64
2023/09/18 00:57:33;;;;;;;7.35;1.67;;;36.60;31.50;;;;;;5079148;28;20108;-65
2023/09/18 01:00:00;;;;;;;7.20;2.20;;;36.50;31.60;;;;;;5074330;28;20027;-65
2023/09/18 01:02:26;;;;;;;14.55;3.08;;;36.40;31.10;;;;;;5056856;28;20078;-66
2023/09/18 01:04:53;;;;;;;8.57;2.00;;;36.40;31.00;;;;;;5075600;28;20021;-61
2023/09/18 01:07:19;;;;;;;4.43;1.80;;;36.40;31.00;;;;;;5073543;28;20029;-66
2023/09/18 01:09:46;;;;;;;13.05;1.70;;;36.30;31.80;;;;;;5049679;28;20029;-71
2023/09/18 01:12:37;;;;;;;11.50;1.90;;;36.20;31.20;;;;;;5066085;28;20043;-69
2023/09/18 01:15:08;;;;;;;8.85;1.55;;;36.10;30.60;;;;;;5071131;28;20015;-66
2023/09/18 01:17:40;;;;;;;10.77;2.22;;;36.10;30.70;;;;;;5072947;28;20061;-62
2023/09/18 01:20:10;;;;;;;12.02;1.98;;;36.00;30.50;;;;;;5069935;28;20449;-67
2023/09/18 01:22:36;;;;;;;9.23;7.30;;;35.90;30.40;;;;;;5070091;28;20436;-65
2023/09/18 01:25:04;;;;;;;11.75;7.40;;;35.80;30.50;;;;;;5068691;28;20452;-68
2023/09/18 01:27:30;;;;;;;28.95;16.80;;;35.70;30.40;;;;;;5064488;28;20476;-66
2023/09/18 01:29:57;;;;;;;34.00;19.48;;;35.70;30.40;;;;;;5066077;28;20024;-64
2023/09/18 01:32:27;;;;;;;31.23;18.67;;;35.60;30.50;;;;;;5073390;28;20016;-67
2023/09/18 01:34:56;;;;;;;26.00;17.13;;;35.50;30.40;;;;;;5066849;28;20020;-66
2023/09/18 01:37:26;;;;;;;34.20;17.95;;;35.50;31.10;;;;;;5069508;28;20012;-62
2023/09/18 01:39:53;;;;;;;11.70;7.20;;;35.40;30.60;;;;;;5071326;28;20024;-64
2023/09/18 01:42:21;;;;;;;16.85;8.32;;;35.30;30.50;;;;;;5074296;28;20031;-62
2023/09/18 01:44:49;;;;;;;16.25;5.90;;;35.20;30.70;;;;;;5075650;28;20015;-63
2023/09/18 01:47:20;;;;;;;18.17;7.75;;;35.20;30.80;;;;;;5066556;28;20021;-66
2023/09/18 01:49:47;;;;;;;13.98;2.75;;;35.10;31.10;;;;;;5077479;28;20051;-65
2023/09/18 01:52:13;;;;;;;15.85;2.60;;;35.10;31.00;;;;;;5072477;28;20035;-62
2023/09/18 01:54:40;;;;;;;13.80;3.33;;;35.00;31.20;;;;;;5072619;28;20481;-62
2023/09/18 01:57:09;;;;;;;12.35;2.40;;;34.90;31.10;;;;;;5078666;28;20134;-64
2023/09/18 01:59:36;;;;;;;15.00;3.50;;;34.90;31.40;;;;;;5069604;28;20032;-64
2023/09/18 02:02:05;;;;;;;13.68;3.00;;;34.90;31.40;;;;;;5069523;28;20020;-64
2023/09/18 02:04:32;;;;;;;22.80;3.38;;;34.80;31.80;;;;;;5067229;28;20024;-65
2023/09/18 02:06:58;;;;;;;19.13;4.00;;;34.80;31.80;;;;;;5049712;28;20329;-61
2023/09/18 02:09:25;;;;;;;28.90;4.00;;;34.90;32.40;;;;;;5070928;28;20013;-61
2023/09/18 02:11:51;;;;;;;18.17;3.63;;;34.90;32.10;;;;;;5060337;28;20596;-61
2023/09/18 02:14:17;;;;;;;13.55;3.33;;;34.90;32.00;;;;;;5070186;28;20091;-67
2023/09/18 02:16:45;;;;;;;22.23;3.78;;;34.90;32.20;;;;;;5074414;28;20043;-66
2023/09/18 02:19:20;;;;;;;14.63;3.63;;;34.80;32.40;;;;;;5077203;28;20119;-63
2023/09/18 02:21:46;;;;;;;14.02;3.30;;;34.80;32.40;;;;;;5073015;28;20391;-68
2023/09/18 02:24:13;;;;;;;23.67;3.30;;;34.70;32.30;;;;;;5048637;28;20052;-63
2023/09/18 02:26:39;;;;;;;18.90;3.13;;;34.70;32.40;;;;;;5073049;28;20066;-62
2023/09/18 02:29:13;;;;;;;15.52;3.08;;;34.60;32.60;;;;;;5069096;28;20171;-61
2023/09/18 02:31:40;;;;;;;19.63;3.22;;;34.60;32.60;;;;;;5070184;28;20094;-64
2023/09/18 02:34:08;;;;;;;20.20;3.15;;;34.50;32.70;;;;;;5069465;28;20728;-64
2023/09/18 02:36:35;;;;;;;19.90;3.83;;;34.40;32.90;;;;;;5072395;28;20021;-60
2023/09/18 02:39:03;;;;;;;18.40;7.22;;;34.40;33.00;;;;;;5069723;28;20086;-63
2023/09/18 02:41:30;;;;;;;17.45;5.78;;;34.30;33.10;;;;;;5083381;28;20024;-61
2023/09/18 02:43:56;;;;;;;32.45;8.18;;;34.30;33.50;;;;;;5076072;28;20133;-62
2023/09/18 02:46:23;;;;;;;27.65;6.90;;;34.30;33.60;;;;;;5072254;28;20013;-60
2023/09/18 02:48:49;;;;;;;20.35;6.25;;;34.20;33.70;;;;;;5068602;28;20096;-63
2023/09/18 02:51:16;;;;;;;19.98;4.80;;;34.20;34.00;;;;;;5069881;28;20374;-59
2023/09/18 02:53:43;;;;;;;18.23;5.05;;;34.10;34.50;;;;;;5070009;28;20059;-58
2023/09/18 02:56:09;;;;;;;27.17;6.38;;;34.10;34.80;;;;;;5048948;28;20032;-62
2023/09/18 02:58:35;;;;;;;23.35;7.15;;;34.00;35.20;;;;;;5065134;28;20162;-67
2023/09/18 03:01:03;;;;;;;30.42;8.38;;;34.00;35.80;;;;;;5066371;28;20654;-65
2023/09/18 03:03:30;;;;;;;34.20;9.20;;;33.90;36.20;;;;;;5061035;28;20684;-64
2023/09/18 03:06:02;;;;;;;22.90;7.43;;;33.80;36.60;;;;;;5071913;28;20024;-62
2023/09/18 03:08:29;;;;;;;28.85;7.50;;;33.80;37.00;;;;;;5072601;28;20028;-62
2023/09/18 03:10:55;;;;;;;36.78;7.30;;;33.80;37.30;;;;;;5069502;28;20492;-62
2023/09/18 03:13:23;;;;;;;21.40;6.30;;;33.70;37.60;;;;;;5065258;28;20485;-64
2023/09/18 03:15:49;;;;;;;27.80;6.03;;;33.60;38.00;;;;;;5069238;28;20091;-62
2023/09/18 03:18:16;;;;;;;19.65;4.90;;;33.50;38.30;;;;;;5076301;28;20483;-62
2023/09/18 03:20:42;;;;;;;28.42;5.43;;;33.50;38.40;;;;;;5072626;28;20358;-60
2023/09/18 03:23:08;;;;;;;26.30;5.65;;;33.40;38.50;;;;;;5068489;28;20469;-64
2023/09/18 03:25:37;;;;;;;19.35;4.15;;;33.40;38.90;;;;;;5072015;28;20020;-60
2023/09/18 03:28:03;;;;;;;25.23;4.97;;;33.30;39.00;;;;;;5064828;28;20025;-62
2023/09/18 03:30:30;;;;;;;21.92;4.07;;;33.30;39.50;;;;;;5069668;28;20025;-63
2023/09/18 03:32:56;;;;;;;17.38;3.55;;;33.20;39.70;;;;;;5079088;28;20028;-65
2023/09/18 03:35:23;;;;;;;23.58;3.72;;;33.20;40.00;;;;;;5068573;28;20015;-62
2023/09/18 03:37:56;;;;;;;20.27;3.40;;;33.10;40.30;;;;;;5069509;28;20364;-60
2023/09/18 03:40:23;;;;;;;17.23;2.88;;;33.10;40.60;;;;;;5065864;28;20020;-64
2023/09/18 03:42:50;;;;;;;12.45;2.83;;;33.00;40.50;;;;;;5072466;28;20118;-63
2023/09/18 03:45:18;;;;;;;24.58;3.20;;;33.00;40.80;;;;;;5072483;28;20020;-63
2023/09/18 03:47:45;;;;;;;15.07;2.88;;;33.00;40.80;;;;;;5069832;28;20016;-62
2023/09/18 03:50:13;;;;;;;23.25;3.25;;;32.90;41.20;;;;;;5071380;28;20405;-60
2023/09/18 03:52:40;;;;;;;10.15;3.08;;;32.80;41.20;;;;;;5073747;28;20499;-63
2023/09/18 03:55:07;;;;;;;15.95;4.30;;;32.80;41.80;;;;;;5073546;28;20362;-62
2023/09/18 03:57:34;;;;;;;11.63;4.05;;;32.80;42.30;;;;;;5081862;28;20016;-64
2023/09/18 04:00:00;;;;;;;22.92;4.43;;;32.70;42.70;;;;;;5071059;28;20017;-64
2023/09/18 04:02:27;;;;;;;24.17;5.10;;;32.60;42.40;;;;;;5068576;28;20032;-64
2023/09/18 04:04:56;;;;;;;23.98;4.78;;;32.50;42.50;;;;;;5071911;28;20381;-62
2023/09/18 04:07:23;;;;;;;15.48;4.57;;;32.50;43.00;;;;;;5072277;28;20016;-63
2023/09/18 04:09:49;;;;;;;16.42;3.35;;;32.50;43.50;;;;;;5073348;28;20502;-63
2023/09/18 04:12:16;;;;;;;27.48;4.18;;;32.40;43.70;;;;;;5073568;28;20025;-61
2023/09/18 04:14:42;;;;;;;20.67;4.43;;;32.30;44.00;;;;;;5075129;28;20089;-64
2023/09/18 04:17:09;;;;;;;15.60;3.65;;;32.30;44.20;;;;;;5075753;28;20008;-65
2023/09/18 04:19:35;;;;;;;21.20;2.92;;;32.20;44.30;;;;;;5068307;28;20056;-61
2023/09/18 04:22:02;;;;;;;9.25;2.97;;;32.20;44.60;;;;;;5073171;28;20028;-62
2023/09/18 04:24:28;;;;;;;16.38;3.47;;;32.10;44.90;;;;;;5069071;28;20052;-62
2023/09/18 04:26:54;;;;;;;19.98;3.80;;;32.10;45.30;;;;;;5073505;28;20437;-63
2023/09/18 04:29:21;;;;;;;22.13;4.40;;;32.00;45.50;;;;;;5068488;28;20119;-65
2023/09/18 04:31:48;;;;;;;16.50;4.63;;;32.00;45.90;;;;;;5072378;28;20016;-63
2023/09/18 04:34:14;;;;;;;18.83;4.65;;;32.00;46.00;;;;;;5069026;28;20490;-62
2023/09/18 04:36:41;;;;;;;19.42;4.22;;;31.90;46.40;;;;;;5066100;28;20009;-63
2023/09/18 04:39:09;;;;;;;20.15;3.95;;;31.90;46.60;;;;;;5071621;28;20017;-62
2023/09/18 04:41:35;;;;;;;11.85;3.13;;;31.80;46.70;;;;;;5076447;28;20016;-66
2023/09/18 04:44:02;;;;;;;17.90;2.80;;;31.80;47.60;;;;;;5073640;28;20538;-62
2023/09/18 04:46:29;;;;;;;14.30;3.22;;;31.80;47.90;;;;;;5071259;28;20020;-63
2023/09/18 04:48:56;;;;;;;23.60;3.45;;;31.70;47.50;;;;;;5072901;28;20322;-63
2023/09/18 04:51:22;;;;;;;21.33;2.67;;;31.70;47.70;;;;;;5075489;28;20050;-66
2023/09/18 04:53:48;;;;;;;14.55;3.33;;;31.70;48.00;;;;;;5067832;28;20020;-63
2023/09/18 04:56:15;;;;;;;14.75;3.45;;;31.60;48.10;;;;;;5069218;28;20028;-60
2023/09/18 04:58:42;;;;;;;13.73;3.22;;;31.60;48.30;;;;;;5070201;28;20024;-63
2023/09/18 05:01:08;;;;;;;15.63;3.45;;;31.60;48.50;;;;;;5069262;28;20010;-63
2023/09/18 05:03:35;;;;;;;15.73;3.53;;;31.50;48.40;;;;;;5075889;28;20526;-63
2023/09/18 05:06:03;;;;;;;22.33;5.97;;;31.50;48.70;;;;;;5077460;28;20024;-64
2023/09/18 05:08:31;;;;;;;12.43;3.13;;;31.40;48.70;;;;;;5069739;28;20492;-64
2023/09/18 05:10:57;;;;;;;13.52;2.63;;;31.30;49.00;;;;;;5075086;28;20017;-65
2023/09/18 05:13:24;;;;;;;17.13;3.20;;;31.30;49.00;;;;;;5070770;28;20020;-63
2023/09/18 05:15:51;;;;;;;8.13;2.92;;;31.30;49.00;;;;;;5072698;28;20040;-63
2023/09/18 05:18:17;;;;;;;19.80;3.67;;;31.30;49.10;;;;;;5072265;28;20004;-63
2023/09/18 05:20:43;;;;;;;19.23;3.60;;;31.20;49.00;;;;;;5073491;28;20059;-62
2023/09/18 05:23:10;;;;;;;19.60;3.92;;;31.20;48.80;;;;;;5072924;28;20511;-64
2023/09/18 05:25:38;;;;;;;13.82;3.72;;;31.10;48.80;;;;;;5067244;28;20035;-65
2023/09/18 05:28:05;;;;;;;16.77;3.67;;;31.10;49.10;;;;;;5068828;28;20020;-64
2023/09/18 05:30:38;;;;;;;18.25;4.47;;;31.10;49.30;;;;;;5070681;28;20039;-63
2023/09/18 05:33:06;;;;;;;16.02;4.07;;;31.00;49.00;;;;;;5083257;28;20052;-59
2023/09/18 05:35:33;;;;;;;25.65;6.03;;;31.40;51.10;;;;;;5078373;28;20392;-66
2023/09/18 05:38:00;;;;;;;20.30;5.18;;;31.60;48.80;;;;;;5072166;28;20012;-65
2023/09/18 05:40:27;;;;;;;17.23;4.55;;;31.90;50.10;;;;;;5069189;28;20035;-65
2023/09/18 05:42:55;;;;;;;14.85;5.47;;;31.90;50.00;;;;;;5070425;28;20511;-63
2023/09/18 05:45:21;;;;;;;31.30;12.52;;;31.80;49.60;;;;;;5071102;28;20024;-63
2023/09/18 05:47:49;;;;;;;15.93;5.45;;;31.90;49.80;;;;;;5078408;28;20098;-68
2023/09/18 05:50:16;;;;;;;22.63;7.95;;;31.90;50.50;;;;;;5074164;28;20047;-63
2023/09/18 05:52:52;;;;;;;20.40;5.82;;;32.00;49.70;;;;;;5071860;28;20534;-68
2023/09/18 05:55:18;;;;;;;20.92;5.40;;;32.00;49.80;;;;;;5076960;28;20020;-64
2023/09/18 05:57:45;;;;;;;16.10;5.05;;;32.00;49.70;;;;;;5085830;28;20570;-63
2023/09/18 06:00:12;;;;;;;20.20;5.22;;;31.80;49.10;;;;;;5073139;28;20551;-66
2023/09/18 06:02:41;;;;;;;17.67;5.35;;;31.80;49.50;;;;;;5078763;28;20200;-66
2023/09/18 06:05:11;;;;;;;20.58;5.25;;;31.80;49.20;;;;;;5075369;28;20012;-65
2023/09/18 06:07:38;;;;;;;15.18;5.65;;;31.70;49.10;;;;;;5072065;28;20028;-67
2023/09/18 06:10:05;;;;;;;20.15;5.53;;;31.60;49.00;;;;;;5072972;28;20024;-67
2023/09/18 06:12:31;;;;;;;17.23;5.18;;;31.60;48.80;;;;;;5076542;28;20019;-63
2023/09/18 06:14:58;;;;;;;23.20;5.03;;;31.60;49.00;;;;;;5072494;28;20016;-67
2023/09/18 06:17:24;;;;;;;13.90;5.05;;;31.80;49.40;;;;;;5076742;28;20016;-65
2023/09/18 06:19:52;;;;;;;18.90;4.70;;;31.80;49.20;;;;;;5072164;28;20012;-65
2023/09/18 06:22:18;;;;;;;13.48;4.63;;;31.80;48.40;;;;;;5070633;28;20037;-65
2023/09/18 06:24:45;;;;;;;17.52;4.30;;;31.80;48.40;;;;;;5069159;28;20028;-65
2023/09/18 06:27:11;;;;;;;17.33;4.13;;;31.80;49.60;;;;;;5073953;28;20043;-60
2023/09/18 06:29:39;;;;;;;17.23;3.42;;;31.70;50.40;;;;;;5069824;28;20021;-67
2023/09/18 06:32:06;;;;;;;15.73;3.38;;;31.60;50.30;;;;;;5071969;28;20106;-67
2023/09/18 06:34:32;;;;;;;14.70;3.05;;;31.60;51.00;;;;;;5074105;28;20013;-65
2023/09/18 06:36:58;;;;;;;21.42;3.22;;;31.50;50.80;;;;;;5073756;28;20020;-66
2023/09/18 06:39:26;;;;;;;12.70;2.70;;;31.40;51.40;;;;;;5073090;28;20016;-63
2023/09/18 06:41:52;;;;;;;8.77;2.60;;;31.40;52.20;;;;;;5071440;28;20066;-65
2023/09/18 06:44:18;;;;;;;9.48;2.95;;;31.30;53.20;;;;;;5073313;28;20016;-64
2023/09/18 06:46:45;;;;;;;11.30;2.53;;;31.20;53.80;;;;;;5073217;28;20012;-64
2023/09/18 06:49:11;;;;;;;8.57;2.40;;;31.10;53.50;;;;;;5069008;28;20530;-62
2023/09/18 06:51:38;;;;;;;7.60;2.22;;;31.20;54.10;;;;;;5071534;28;20013;-65
2023/09/18 06:54:04;;;;;;;6.43;2.10;;;31.10;55.60;;;;;;5076516;28;20486;-65
2023/09/18 06:56:30;;;;;;;10.52;2.15;;;31.00;54.90;;;;;;5073982;28;20023;-65
2023/09/18 06:58:57;;;;;;;7.38;2.50;;;30.90;55.20;;;;;;5064945;28;20459;-66
2023/09/18 07:01:24;;;;;;;7.78;2.45;;;30.90;55.50;;;;;;5073976;28;20008;-66
2023/09/18 07:03:51;;;;;;;8.48;2.38;;;30.70;56.10;;;;;;5068747;28;20048;-66
2023/09/18 07:06:21;;;;;;;6.65;2.20;;;30.70;56.00;;;;;;5078179;28;20417;-67
2023/09/18 07:08:51;;;;;;;13.07;3.10;;;30.60;56.20;;;;;;5073537;28;20012;-67
2023/09/18 07:11:18;;;;;;;13.05;2.75;;;30.60;56.30;;;;;;5068722;28;20033;-63
2023/09/18 07:13:44;;;;;;;7.55;2.42;;;30.50;56.40;;;;;;5069283;28;20514;-64
2023/09/18 07:16:11;;;;;;;10.00;3.45;;;30.50;56.80;;;;;;5071901;28;20110;-63
2023/09/18 07:18:38;;;;;;;10.48;2.95;;;30.40;56.80;;;;;;5074230;28;20012;-64
2023/09/18 07:21:04;;;;;;;9.30;3.10;;;30.30;56.90;;;;;;5070114;28;20020;-64
2023/09/18 07:23:31;;;;;;;13.38;2.97;;;30.10;57.40;;;;;;5071646;28;20016;-61
2023/09/18 07:25:57;;;;;;;14.23;3.25;;;30.10;57.40;;;;;;5064171;28;20017;-64
2023/09/18 07:28:25;;;;;;;14.70;2.95;;;30.10;57.70;;;;;;5061597;28;20440;-62
2023/09/18 07:30:51;;;;;;;15.73;3.05;;;30.20;57.00;;;;;;5062368;28;20060;-63
2023/09/18 07:33:19;;;;;;;11.38;3.08;;;30.20;58.00;;;;;;5071523;28;20017;-63
2023/09/18 07:35:53;;;;;;;23.60;3.65;;;30.20;57.90;;;;;;5067057;28;20056;-66
2023/09/18 07:38:19;;;;;;;21.85;3.58;;;30.10;57.10;;;;;;5049034;28;20434;-65
2023/09/18 07:40:47;;;;;;;17.58;3.55;;;30.10;57.10;;;;;;5066556;28;20124;-66
2023/09/18 07:43:14;;;;;;;14.93;3.63;;;30.20;58.10;;;;;;5067513;28;20020;-63
2023/09/18 07:45:40;;;;;;;17.88;4.30;;;30.00;57.70;;;;;;5047915;28;20463;-64
2023/09/18 07:48:08;;;;;;;15.60;3.92;;;29.90;57.80;;;;;;5069411;28;20039;-65
2023/09/18 07:50:37;;;;;;;16.35;4.95;;;29.90;58.10;;;;;;5061587;28;20030;-62
2023/09/18 07:53:04;;;;;;;9.45;4.65;;;29.90;58.30;;;;;;5064321;28;20410;-63
2023/09/18 07:55:31;;;;;;;11.95;4.32;;;29.90;57.80;;;;;;5057879;28;20017;-63
2023/09/18 07:57:59;;;;;;;10.90;4.55;;;29.90;57.40;;;;;;5076031;28;20023;-62
2023/09/18 08:00:25;;;;;;;17.58;4.65;;;30.00;58.10;;;;;;5070744;28;20074;-65
2023/09/18 08:02:56;;;;;;;11.55;3.90;;;29.90;57.30;;;;;;5073986;28;20142;-63
2023/09/18 08:05:22;;;;;;;13.15;4.15;;;29.90;57.90;;;;;;5070265;28;20013;-61
2023/09/18 08:07:51;;;;;;;14.95;4.18;;;29.90;58.50;;;;;;5067854;28;20031;-63
2023/09/18 08:10:17;;;;;;;22.48;3.85;;;29.80;59.70;;;;;;5073568;28;20023;-61
2023/09/18 08:12:44;;;;;;;12.23;3.63;;;29.70;59.50;;;;;;5069109;28;20120;-66
2023/09/18 08:15:11;;;;;;;14.07;3.40;;;29.60;63.10;;;;;;5071288;28;20023;-63
2023/09/18 08:17:37;;;;;;;13.13;4.78;;;29.60;64.10;;;;;;5078663;28;20372;-66
2023/09/18 08:20:11;;;;;;;14.80;4.00;;;29.60;65.00;;;;;;5070875;28;20040;-63
2023/09/18 08:22:39;;;;;;;19.25;3.90;;;29.60;65.40;;;;;;5069749;28;20120;-61
2023/09/18 08:25:10;;;;;;;8.40;3.30;;;29.60;66.50;;;;;;5070037;28;20511;-68
2023/09/18 08:27:47;;;;;;;9.70;3.40;;;29.60;66.40;;;;;;5065832;28;20109;-64
2023/09/18 08:30:14;;;;;;;7.20;2.83;;;29.60;67.20;;;;;;5066890;22;20064;-65
2023/09/18 08:32:42;;;;;;;11.85;3.70;;;29.50;67.50;;;;;;5078212;28;20039;-62
2023/09/18 08:35:09;;;;;;;13.05;3.95;;;29.40;68.50;;;;;;5079867;28;20469;-64
2023/09/18 08:37:35;;;;;;;9.63;3.55;;;29.30;68.00;;;;;;5085423;28;20498;-63
2023/09/18 08:40:09;;;;;;;16.08;3.92;;;29.30;68.30;;;;;;5074184;28;20012;-65
2023/09/18 08:42:39;;;;;;;12.82;3.92;;;29.20;67.50;;;;;;5070866;28;21143;-66
2023/09/18 08:45:09;;;;;;;8.85;3.72;;;29.10;66.50;;;;;;5075447;28;20017;-63
2023/09/18 08:47:38;;;;;;;15.07;3.90;;;29.00;66.00;;;;;;5072909;28;20016;-64
2023/09/18 08:50:05;;;;;;;20.42;4.63;;;28.90;66.20;;;;;;5072202;28;20613;-62
2023/09/18 08:52:31;;;;;;;20.63;4.22;;;28.90;65.90;;;;;;5067562;28;20017;-64
2023/09/18 08:54:58;;;;;;;19.45;4.50;;;28.80;66.20;;;;;;5069626;28;20013;-64
2023/09/18 08:57:26;;;;;;;15.65;4.20;;;28.70;65.50;;;;;;5069134;28;20020;-64
2023/09/18 08:59:54;;;;;;;14.75;4.38;;;28.80;65.70;;;;;;5071726;28;20016;-63
2023/09/18 09:02:20;;;;;;;18.48;4.68;;;28.80;67.80;;;;;;5068967;28;20021;-64
2023/09/18 09:04:47;;;;;;;18.42;4.53;;;28.70;67.10;;;;;;5074402;28;20013;-64
2023/09/18 09:07:13;;;;;;;16.35;4.35;;;28.60;67.50;;;;;;5081074;28;20111;-64
2023/09/18 09:09:41;;;;;;;15.27;5.13;;;28.60;67.30;;;;;;5072732;28;20056;-64
2023/09/18 09:12:08;;;;;;;13.45;4.43;;;28.60;69.00;;;;;;5077906;28;20042;-66
2023/09/18 09:14:35;;;;;;;16.10;4.15;;;28.50;69.60;;;;;;5070444;28;20447;-64
2023/09/18 09:17:02;;;;;;;9.35;4.45;;;28.40;70.50;;;;;;5079624;28;20012;-64
2023/09/18 09:19:42;;;;;;;16.58;4.20;;;28.40;70.20;;;;;;5076345;28;20375;-62
2023/09/18 09:22:09;;;;;;;12.82;4.40;;;28.40;70.00;;;;;;5075662;28;20039;-64
2023/09/18 09:24:38;;;;;;;15.50;3.72;;;28.40;70.60;;;;;;5073867;28;20021;-64
2023/09/18 09:27:05;;;;;;;13.45;4.10;;;28.40;72.20;;;;;;5087408;28;20434;-62
2023/09/18 09:29:31;;;;;;;14.27;3.85;;;28.40;72.00;;;;;;5071359;28;20036;-63
2023/09/18 09:32:19;;;;;;;10.57;4.22;;;28.40;72.40;;;;;;5078753;28;20068;-64
2023/09/18 09:34:48;;;;;;;10.43;3.47;;;28.40;73.20;;;;;;5073802;28;20024;-62
2023/09/18 09:37:15;;;;;;;12.80;3.70;;;28.40;73.40;;;;;;5077852;28;20016;-62
2023/09/18 09:39:51;;;;;;;8.57;3.58;;;28.40;73.90;;;;;;5075553;28;20096;-64
2023/09/18 09:42:28;;;;;;;;;;;28.40;74.70;;;;;;5076592;28;20031;-64
2023/09/18 09:45:06;;;;;;;7.20;3.30;;;28.30;76.10;;;;;;5074720;28;19934;-65
2023/09/18 09:47:37;;;;;;;7.53;3.20;;;28.30;77.30;;;;;;5076976;28;20013;-63
2023/09/18 09:50:09;;;;;;;4.70;2.30;;;28.20;78.90;;;;;;5068715;28;20020;-67
2023/09/18 09:52:36;;;;;;;8.48;3.00;;;28.20;80.50;;;;;;5070622;28;20020;-63
2023/09/18 09:55:17;;;;;;;9.75;2.80;;;28.10;82.00;;;;;;5075501;28;20398;-65
2023/09/18 09:57:57;;;;;;;6.47;2.65;;;28.10;83.20;;;;;;5079599;28;20012;-65
2023/09/18 10:00:32;;;;;;;5.88;2.67;;;28.10;83.70;;;;;;5073618;28;20012;-65
2023/09/18 10:03:02;;;;;;;6.15;2.58;;;28.00;85.40;;;;;;5074004;28;20034;-65
2023/09/18 10:05:32;;;;;;;6.20;2.67;;;28.00;86.90;;;;;;5072418;28;20012;-67
2023/09/18 10:08:02;;;;;;;6.03;2.72;;;27.90;87.60;;;;;;5072284;28;20016;-66
2023/09/18 10:10:35;;;;;;;8.52;3.15;;;27.80;88.60;;;;;;5051149;28;20055;-64
2023/09/18 10:13:14;;;;;;;9.68;2.85;;;27.70;89.10;;;;;;5062125;28;20058;-63
2023/09/18 10:15:44;;;;;;;6.53;2.40;;;27.60;90.00;;;;;;5073076;28;20015;-65
2023/09/18 10:18:29;;;;;;;6.43;2.78;;;27.60;90.30;;;;;;5074552;28;20109;-63
2023/09/18 10:21:07;;;;;;;6.07;2.47;;;27.50;90.50;;;;;;5074907;28;20426;-65
2023/09/18 10:24:06;;;;;;;7.47;3.00;;;27.50;90.80;;;;;;5073732;28;20025;-63
2023/09/18 10:26:43;;;;;;;6.05;2.97;;;27.40;91.30;;;;;;5052855;28;20082;-64
2023/09/18 10:29:12;;;;;;;13.10;3.65;;;27.40;91.30;;;;;;5069215;28;20556;-65
2023/09/18 10:31:41;;;;;;;8.43;3.17;;;27.40;91.30;;;;;;5074363;28;20027;-64
2023/09/18 10:34:08;;;;;;;15.27;4.10;;;27.40;91.30;;;;;;5071073;28;20554;-64
2023/09/18 10:36:36;;;;;;;18.48;3.70;;;27.50;91.30;;;;;;5074250;28;20103;-64
2023/09/18 10:39:08;;;;;;;10.45;3.22;;;27.40;91.00;;;;;;5079904;28;20039;-66
2023/09/18 10:41:35;;;;;;;11.90;3.90;;;27.30;91.20;;;;;;5077181;28;20053;-66
2023/09/18 10:44:04;;;;;;;9.55;4.40;;;27.20;91.50;;;;;;5074577;28;20040;-66
2023/09/18 10:46:32;;;;;;;11.93;4.40;;;27.20;91.40;;;;;;5077241;28;20038;-64
2023/09/18 10:49:01;;;;;;;9.15;4.75;;;27.30;91.50;;;;;;5076053;28;20400;-64
2023/09/18 10:51:28;;;;;;;11.00;4.95;;;27.20;91.80;;;;;;5073120;28;20438;-66
2023/09/18 10:53:57;;;;;;;16.52;6.15;;;27.20;91.80;;;;;;5070753;28;20047;-64
2023/09/18 10:56:24;;;;;;;18.35;5.88;;;27.20;91.50;;;;;;5072075;28;20452;-63
2023/09/18 10:58:59;;;;;;;14.32;5.65;;;27.20;91.60;;;;;;5071548;28;20588;-65
2023/09/18 11:01:28;;;;;;;21.42;6.53;;;27.20;91.80;;;;;;5069710;28;20054;-62
2023/09/18 11:04:01;;;;;;;14.60;5.50;;;27.10;91.80;;;;;;5071408;28;20408;-65
2023/09/18 11:06:28;;;;;;;14.23;5.60;;;27.10;92.30;;;;;;5076867;28;20053;-63
2023/09/18 11:09:09;;;;;;;15.82;5.78;;;27.10;92.50;;;;;;5074283;28;20068;-63
2023/09/18 11:11:36;;;;;;;17.85;4.72;;;27.00;92.80;;;;;;5075530;28;20057;-65
2023/09/18 11:14:10;;;;;;;12.75;4.60;;;27.00;93.30;;;;;;5068839;28;20608;-65
2023/09/18 11:16:38;;;;;;;19.70;4.55;;;26.90;93.50;;;;;;5071977;28;20042;-64
2023/09/18 11:19:05;;;;;;;13.75;4.63;;;26.80;93.60;;;;;;5068207;28;20051;-64
2023/09/18 11:21:33;;;;;;;18.38;5.05;;;26.90;94.00;;;;;;5068395;28;20075;-63
2023/09/18 11:24:10;;;;;;;9.02;4.45;;;26.70;94.00;;;;;;5069507;28;20118;-64
2023/09/18 11:26:42;;;;;;;14.00;4.97;;;26.70;94.50;;;;;;5067017;28;20065;-65
2023/09/18 11:29:11;;;;;;;14.73;5.10;;;26.60;94.70;;;;;;5066263;28;20573;-64
2023/09/18 11:31:53;;;;;;;20.25;4.88;;;26.60;94.80;;;;;;5075246;28;20054;-63
2023/09/18 11:34:26;;;;;;;14.32;5.28;;;26.60;95.20;;;;;;5072268;28;20452;-65
2023/09/18 11:36:53;;;;;;;10.88;4.80;;;26.50;95.40;;;;;;5080708;28;20041;-61
2023/09/18 11:39:39;;;;;;;14.68;6.13;;;26.60;95.50;;;;;;5067899;28;20048;-64
2023/09/18 11:42:26;;;;;;;18.00;6.13;;;26.50;95.70;;;;;;5068308;28;20047;-66
2023/09/18 11:44:54;;;;;;;18.15;6.80;;;26.50;95.90;;;;;;5070620;28;20513;-63
2023/09/18 11:47:24;;;;;;;23.13;5.88;;;26.40;96.10;;;;;;5076250;28;20057;-64
2023/09/18 11:49:57;;;;;;;19.40;6.43;;;26.20;96.80;;;;;;5074387;28;20061;-62
2023/09/18 11:52:28;;;;;;;22.20;6.45;;;26.20;96.80;;;;;;5070440;28;20040;-64
2023/09/18 11:55:00;;;;;;;20.13;5.65;;;26.20;96.90;;;;;;5068981;28;21095;-67
2023/09/18 11:57:28;;;;;;;15.75;5.35;;;26.20;96.90;;;;;;5052991;28;20040;-65
2023/09/18 11:59:56;;;;;;;18.52;5.40;;;26.10;97.20;;;;;;5067332;28;20044;-65
2023/09/18 12:02:27;;;;;;;16.23;5.13;;;26.10;97.20;;;;;;5075000;28;20037;-65
2023/09/18 12:04:57;;;;;;;18.40;6.22;;;26.20;97.20;;;;;;5073926;28;20053;-64
2023/09/18 12:07:24;;;;;;;14.88;5.53;;;26.00;97.30;;;;;;5074637;28;20045;-64
2023/09/18 12:09:51;;;;;;;12.80;5.45;;;26.10;97.10;;;;;;5052919;28;20397;-67
2023/09/18 12:12:17;;;;;;;12.38;5.95;;;26.10;96.80;;;;;;5051538;28;20095;-64
2023/09/18 12:14:44;;;;;;;21.10;6.28;;;26.10;96.70;;;;;;5064882;28;20057;-65
2023/09/18 12:17:15;;;;;;;13.63;5.43;;;26.00;96.60;;;;;;5067545;28;20045;-60
2023/09/18 12:19:54;;;;;;;14.65;4.72;;;26.00;96.30;;;;;;5069913;28;20049;-64
2023/09/18 12:22:28;;;;;;;12.68;5.25;;;26.10;96.20;;;;;;5068917;28;20052;-64
2023/09/18 12:25:09;;;;;;;12.70;5.05;;;26.00;96.10;;;;;;5067231;28;20058;-68
2023/09/18 12:27:39;;;;;;;16.00;5.03;;;26.00;96.20;;;;;;5049496;28;20054;-64
2023/09/18 12:30:07;;;;;;;17.13;5.15;;;25.90;96.40;;;;;;5071522;28;20618;-65
2023/09/18 12:32:36;;;;;;;14.75;6.15;;;25.90;96.40;;;;;;5072585;28;20131;-65
2023/09/18 12:35:07;;;;;;;16.25;5.68;;;25.90;96.50;;;;;;5065791;28;20513;-64
2023/09/18 12:37:35;;;;;;;13.63;5.43;;;25.90;96.30;;;;;;5070216;28;20063;-65
2023/09/18 12:40:03;;;;;;;23.60;5.03;;;25.90;95.90;;;;;;5071117;28;20056;-63
2023/09/18 12:42:29;;;;;;;17.40;6.22;;;25.90;95.80;;;;;;5082116;28;20104;-64
2023/09/18 12:44:56;;;;;;;15.13;6.18;;;25.70;96.10;;;;;;5075108;28;20522;-65